Time;durP1;ratioP1;P1;durP2;ratioP2;P2;SDS_P1;SDS_P2;PMS_P1;PMS_P2;Temp;Humidity;BMP_temperature;BMP_pressure;BME280_temperature;BME280_humidity;BME280_pressure;Samples;Min_cycle;Max_cycle;Signal;HPM_P1;HPM_P2
2022/10/28 00:01:16;;;;;;;2.00;0.97;;;23.10;34.30;;;;;;5053463;28;20180;-70
2022/10/28 00:03:45;;;;;;;3.10;1.00;;;22.90;34.30;;;;;;5053355;28;20183;-69
2022/10/28 00:06:16;;;;;;;3.30;0.90;;;23.00;34.00;;;;;;5051322;28;20188;-69
2022/10/28 00:08:43;;;;;;;4.10;1.10;;;23.20;33.40;;;;;;5047850;28;20265;-69
2022/10/28 00:11:15;;;;;;;5.40;1.33;;;23.30;33.20;;;;;;5056410;28;20271;-69
2022/10/28 00:13:44;;;;;;;2.10;0.70;;;23.20;33.90;;;;;;5051822;28;20187;-70
2022/10/28 00:16:23;;;;;;;5.60;1.10;;;23.30;31.40;;;;;;5039436;28;20179;-68
2022/10/28 00:18:52;;;;;;;1.37;0.70;;;23.30;32.30;;;;;;5052866;28;20182;-69
2022/10/28 00:21:23;;;;;;;3.03;0.80;;;23.30;31.00;;;;;;5064829;28;20180;-70
2022/10/28 00:23:50;;;;;;;5.43;1.00;;;23.30;32.30;;;;;;5056001;28;20631;-69
2022/10/28 00:26:21;;;;;;;5.13;1.20;;;23.30;32.20;;;;;;5063367;28;20183;-68
2022/10/28 00:29:08;;;;;;;2.80;0.90;;;23.50;31.30;;;;;;5046539;28;20218;-69
2022/10/28 00:31:37;;;;;;;4.37;0.80;;;23.70;31.50;;;;;;5061023;28;21461;-70
2022/10/28 00:34:06;;;;;;;4.70;1.30;;;23.80;29.90;;;;;;5063565;28;20587;-70
2022/10/28 00:36:36;;;;;;;1.33;0.90;;;23.90;31.20;;;;;;5057969;28;20659;-70
2022/10/28 00:39:12;;;;;;;4.63;1.10;;;24.10;31.70;;;;;;5065502;28;20190;-70
2022/10/28 00:41:42;;;;;;;4.80;0.90;;;24.30;31.80;;;;;;5058769;28;20278;-69
2022/10/28 00:44:40;;;;;;;4.60;0.90;;;24.50;31.60;;;;;;5047351;28;20617;-69
2022/10/28 00:47:42;;;;;;;7.80;0.90;;;24.20;32.80;;;;;;5050275;28;20214;-69
2022/10/28 00:50:35;;;;;;;2.07;0.90;;;24.20;31.90;;;;;;5034781;28;20309;-69
2022/10/28 00:53:07;;;;;;;4.73;1.00;;;24.50;29.70;;;;;;5064861;28;20207;-71
2022/10/28 00:55:36;;;;;;;6.37;0.90;;;24.30;28.10;;;;;;5061425;28;20195;-71
2022/10/28 00:58:06;;;;;;;2.93;0.77;;;24.30;28.10;;;;;;5062194;28;20222;-72
2022/10/28 01:00:33;;;;;;;2.67;1.10;;;24.10;28.10;;;;;;5070732;28;20183;-71
2022/10/28 01:03:01;;;;;;;4.37;1.10;;;23.90;28.00;;;;;;5058164;28;20728;-69
2022/10/28 01:05:31;;;;;;;5.37;0.80;;;24.20;28.90;;;;;;5053369;28;20182;-71
2022/10/28 01:08:02;;;;;;;1.57;0.90;;;24.60;28.60;;;;;;5061110;28;20199;-71
2022/10/28 01:10:44;;;;;;;2.47;0.70;;;24.60;27.80;;;;;;5061242;28;20287;-71
2022/10/28 01:13:37;;;;;;;3.23;0.70;;;24.40;27.90;;;;;;5050555;28;20188;-71
2022/10/28 01:16:07;;;;;;;1.67;0.80;;;24.10;28.80;;;;;;5055170;28;20190;-72
2022/10/28 01:18:54;;;;;;;3.10;0.80;;;24.40;27.80;;;;;;5041540;28;20214;-70
2022/10/28 01:21:37;;;;;;;2.20;0.80;;;24.40;28.20;;;;;;5049449;28;20178;-69
2022/10/28 01:24:48;;;;;;;2.60;0.83;;;24.50;28.20;;;;;;5055124;28;20179;-72
2022/10/28 01:27:41;;;;;;;2.73;1.00;;;24.50;28.50;;;;;;5043936;28;20199;-70
2022/10/28 01:30:26;;;;;;;1.07;0.73;;;24.60;28.10;;;;;;5054163;28;20195;-70
2022/10/28 01:33:28;;;;;;;1.20;0.80;;;24.40;27.50;;;;;;5050638;28;20197;-70
2022/10/28 01:36:20;;;;;;;4.60;0.83;;;24.50;27.60;;;;;;5051529;28;20233;-71
2022/10/28 01:38:57;;;;;;;4.17;0.90;;;25.00;27.50;;;;;;5047362;28;20195;-71
2022/10/28 01:41:41;;;;;;;3.27;0.80;;;24.80;27.60;;;;;;5036538;28;20176;-68
2022/10/28 01:44:28;;;;;;;2.17;0.70;;;24.80;27.00;;;;;;5043778;28;20223;-72
2022/10/28 01:47:34;;;;;;;2.03;0.87;;;24.80;26.70;;;;;;5049788;28;20188;-71
2022/10/28 01:50:07;;;;;;;3.20;0.73;;;25.10;27.10;;;;;;4971526;28;20222;-71
2022/10/28 01:52:37;;;;;;;3.37;0.60;;;25.50;27.50;;;;;;5037517;28;20279;-72
2022/10/28 01:55:29;;;;;;;1.07;0.63;;;25.30;27.00;;;;;;5046146;28;20176;-72
2022/10/28 01:58:00;;;;;;;7.00;0.73;;;25.20;26.90;;;;;;5046360;28;20207;-72
2022/10/28 02:00:29;;;;;;;5.87;0.80;;;25.20;27.00;;;;;;5032319;28;20200;-70
2022/10/28 02:02:56;;;;;;;1.13;0.60;;;25.10;25.90;;;;;;5047150;28;20188;-70
2022/10/28 02:05:48;;;;;;;2.67;0.70;;;25.30;26.90;;;;;;5051663;28;20176;-71
2022/10/28 02:08:18;;;;;;;2.63;0.60;;;25.30;25.00;;;;;;5049830;28;20211;-70
2022/10/28 02:10:58;;;;;;;1.70;0.70;;;25.30;24.60;;;;;;5038567;28;20187;-72
2022/10/28 02:13:41;;;;;;;5.03;0.87;;;25.10;25.50;;;;;;5057734;28;20182;-69
2022/10/28 02:16:35;;;;;;;3.27;0.53;;;25.20;25.20;;;;;;5052002;28;20184;-71
2022/10/28 02:19:10;;;;;;;1.30;0.80;;;25.40;26.20;;;;;;5050921;28;20191;-70
2022/10/28 02:21:49;;;;;;;3.53;0.80;;;25.90;24.80;;;;;;5051851;28;20285;-70
2022/10/28 02:24:16;;;;;;;3.27;0.67;;;26.00;25.00;;;;;;5049125;28;20658;-69
2022/10/28 02:27:04;;;;;;;2.57;0.70;;;25.80;25.20;;;;;;5041850;28;20588;-68
2022/10/28 02:29:40;;;;;;;2.97;0.73;;;25.70;24.50;;;;;;5048411;28;20294;-70
2022/10/28 02:32:17;;;;;;;1.50;0.70;;;25.60;24.00;;;;;;5051961;28;20217;-68
2022/10/28 02:34:48;;;;;;;3.67;0.60;;;25.60;24.20;;;;;;5050335;28;20263;-70
2022/10/28 02:37:27;;;;;;;1.43;0.57;;;25.30;25.10;;;;;;5050194;28;20172;-70
2022/10/28 02:40:03;;;;;;;2.03;0.70;;;25.90;24.20;;;;;;5051791;28;20198;-69
2022/10/28 02:42:36;;;;;;;3.50;0.80;;;25.80;24.50;;;;;;5048794;28;20271;-69
2022/10/28 02:45:23;;;;;;;4.07;0.60;;;26.00;24.70;;;;;;5047519;28;20278;-71
2022/10/28 02:47:59;;;;;;;1.60;0.80;;;25.90;24.50;;;;;;5054516;28;20601;-70
2022/10/28 02:50:35;;;;;;;3.30;0.60;;;25.90;25.20;;;;;;5055371;28;20566;-71
2022/10/28 02:53:10;;;;;;;1.40;0.40;;;26.40;24.60;;;;;;5052230;28;20179;-69
2022/10/28 02:55:41;;;;;;;2.57;0.60;;;26.00;24.00;;;;;;5054514;28;20203;-68
2022/10/28 02:58:10;;;;;;;2.40;0.60;;;25.80;23.70;;;;;;5042560;28;20662;-70
2022/10/28 03:00:37;;;;;;;0.90;0.60;;;25.40;24.00;;;;;;5047170;28;20173;-69
2022/10/28 03:03:05;;;;;;;1.13;0.50;;;25.90;24.60;;;;;;5047367;28;20184;-73
2022/10/28 03:05:32;;;;;;;1.90;0.80;;;26.20;23.90;;;;;;5041008;28;20334;-70
2022/10/28 03:07:59;;;;;;;1.13;0.50;;;26.10;24.20;;;;;;5044792;28;20693;-70
2022/10/28 03:10:27;;;;;;;3.00;0.80;;;25.90;23.90;;;;;;5042985;28;20189;-70
2022/10/28 03:12:54;;;;;;;1.00;0.60;;;26.00;24.80;;;;;;5054898;28;20749;-69
2022/10/28 03:15:21;;;;;;;1.77;0.60;;;26.40;24.00;;;;;;5054634;28;20183;-70
2022/10/28 03:17:49;;;;;;;3.77;1.20;;;26.40;24.80;;;;;;5053920;28;20183;-68
2022/10/28 03:20:16;;;;;;;3.23;0.63;;;26.70;24.40;;;;;;5045009;28;20193;-69
2022/10/28 03:22:44;;;;;;;3.43;0.60;;;26.00;23.90;;;;;;5045421;28;20200;-69
2022/10/28 03:25:11;;;;;;;2.47;0.50;;;26.50;24.30;;;;;;5051093;28;20179;-69
2022/10/28 03:27:41;;;;;;;1.77;0.57;;;26.50;24.10;;;;;;5054452;28;20191;-69
2022/10/28 03:30:09;;;;;;;1.00;0.60;;;26.90;24.10;;;;;;5054313;28;20278;-70
2022/10/28 03:32:37;;;;;;;4.43;0.83;;;26.70;24.00;;;;;;5054317;28;20254;-71
2022/10/28 03:35:05;;;;;;;1.70;0.67;;;26.50;24.10;;;;;;5046617;28;20188;-70
2022/10/28 03:37:32;;;;;;;0.77;0.50;;;26.30;25.10;;;;;;5054467;28;20175;-70
2022/10/28 03:40:01;;;;;;;1.27;0.50;;;26.80;23.80;;;;;;5054347;28;20560;-69
2022/10/28 03:42:29;;;;;;;0.47;0.47;;;27.20;23.60;;;;;;5054072;28;20486;-68
2022/10/28 03:44:56;;;;;;;2.43;0.70;;;27.20;23.90;;;;;;5054000;28;20180;-68
2022/10/28 03:47:23;;;;;;;4.33;0.70;;;27.20;24.20;;;;;;5053774;28;20509;-71
2022/10/28 03:49:51;;;;;;;1.13;0.50;;;27.40;23.60;;;;;;5053711;28;20218;-69
2022/10/28 03:52:18;;;;;;;2.53;0.43;;;27.30;23.70;;;;;;5049330;28;20184;-74
2022/10/28 03:54:45;;;;;;;4.73;1.00;;;26.90;24.10;;;;;;5037793;28;20271;-72
2022/10/28 03:57:13;;;;;;;4.67;0.70;;;26.20;24.80;;;;;;5053334;28;20630;-72
2022/10/28 03:59:40;;;;;;;1.20;0.50;;;25.50;25.80;;;;;;5053076;28;20267;-69
2022/10/28 04:02:07;;;;;;;1.23;0.60;;;26.20;24.90;;;;;;5053153;28;20180;-71
2022/10/28 04:04:35;;;;;;;16.63;0.90;;;27.00;24.50;;;;;;5052242;28;20263;-70
2022/10/28 04:07:02;;;;;;;2.60;0.50;;;27.70;23.20;;;;;;5052906;28;20219;-71
2022/10/28 04:09:30;;;;;;;2.83;0.50;;;27.30;23.40;;;;;;5046705;28;20311;-71
2022/10/28 04:11:57;;;;;;;1.33;0.50;;;27.50;23.60;;;;;;5058603;28;20195;-71
2022/10/28 04:14:24;;;;;;;1.80;0.70;;;26.70;25.10;;;;;;5053841;28;20175;-71
2022/10/28 04:16:51;;;;;;;1.57;0.60;;;26.60;24.40;;;;;;5053658;28;20180;-73
2022/10/28 04:19:19;;;;;;;4.83;0.80;;;27.10;23.90;;;;;;5053288;28;20587;-72
2022/10/28 04:21:46;;;;;;;1.80;0.63;;;27.40;23.40;;;;;;5039988;28;20192;-71
2022/10/28 04:24:13;;;;;;;1.13;0.60;;;28.20;23.10;;;;;;5039434;28;20199;-73
2022/10/28 04:26:41;;;;;;;2.60;0.60;;;28.40;22.60;;;;;;5034599;28;20181;-71
2022/10/28 04:29:08;;;;;;;3.17;0.60;;;28.30;23.00;;;;;;5050873;28;20665;-70
2022/10/28 04:31:35;;;;;;;3.17;0.67;;;27.20;23.20;;;;;;5033545;28;20179;-69
2022/10/28 04:34:03;;;;;;;1.07;0.50;;;27.30;23.60;;;;;;5052252;28;20417;-69
2022/10/28 04:36:30;;;;;;;3.20;0.53;;;27.40;23.40;;;;;;5053152;28;20218;-69
2022/10/28 04:38:57;;;;;;;4.27;0.67;;;27.60;22.80;;;;;;5037418;28;20189;-67
2022/10/28 04:41:25;;;;;;;1.03;0.40;;;28.20;22.60;;;;;;5035139;28;20204;-70
2022/10/28 04:43:54;;;;;;;2.73;0.57;;;27.70;22.40;;;;;;5044484;28;20273;-70
2022/10/28 04:46:22;;;;;;;5.80;0.70;;;27.40;22.90;;;;;;5052546;28;20528;-68
2022/10/28 04:48:49;;;;;;;0.33;0.33;;;27.40;23.00;;;;;;5051931;28;20618;-68
2022/10/28 04:51:20;;;;;;;1.60;0.60;;;27.50;23.00;;;;;;5055450;28;20221;-68
2022/10/28 04:53:47;;;;;;;1.00;0.50;;;28.10;22.60;;;;;;5071488;28;20281;-70
2022/10/28 04:56:14;;;;;;;2.53;0.50;;;28.30;22.40;;;;;;5066498;28;20586;-68
2022/10/28 04:58:42;;;;;;;3.07;0.53;;;27.80;23.30;;;;;;5053467;28;20332;-69
2022/10/28 05:01:10;;;;;;;1.57;0.47;;;27.70;23.30;;;;;;5043310;28;20180;-68
2022/10/28 05:03:37;;;;;;;1.77;0.50;;;27.50;22.90;;;;;;5052438;28;20168;-70
2022/10/28 05:06:05;;;;;;;2.10;0.53;;;27.70;23.10;;;;;;5046462;28;20195;-72
2022/10/28 05:08:32;;;;;;;3.47;0.53;;;27.60;23.10;;;;;;5050605;28;20571;-71
2022/10/28 05:11:00;;;;;;;3.33;0.60;;;27.30;23.30;;;;;;5040443;28;20184;-70
2022/10/28 05:13:27;;;;;;;2.10;0.77;;;27.50;23.10;;;;;;5040522;28;20799;-72
2022/10/28 05:15:54;;;;;;;3.77;0.73;;;27.50;23.10;;;;;;5047952;28;20208;-70
2022/10/28 05:18:22;;;;;;;1.40;0.50;;;27.80;23.20;;;;;;5039698;28;20672;-74
2022/10/28 05:20:53;;;;;;;0.53;0.50;;;27.90;23.00;;;;;;5048644;28;20183;-73
2022/10/28 05:23:24;;;;;;;0.33;0.30;;;27.60;23.10;;;;;;5044960;28;20187;-70
2022/10/28 05:25:51;;;;;;;3.57;0.60;;;27.50;23.30;;;;;;5048380;28;20191;-68
2022/10/28 05:28:20;;;;;;;3.27;0.60;;;27.60;23.70;;;;;;5052184;28;20290;-72
2022/10/28 05:30:47;;;;;;;0.93;0.50;;;27.00;23.80;;;;;;5052374;28;20180;-74
2022/10/28 05:33:15;;;;;;;1.43;0.50;;;27.50;23.10;;;;;;5051262;28;20188;-76
2022/10/28 05:35:42;;;;;;;4.20;0.50;;;27.10;23.90;;;;;;5042321;28;20245;-73
2022/10/28 05:38:10;;;;;;;2.93;0.60;;;27.40;22.70;;;;;;5043252;28;20175;-72
2022/10/28 05:40:37;;;;;;;2.23;0.73;;;27.00;22.80;;;;;;5039244;28;20180;-72
2022/10/28 05:43:05;;;;;;;8.27;0.60;;;27.30;23.20;;;;;;5047885;28;20234;-72
2022/10/28 05:45:32;;;;;;;2.23;0.43;;;27.20;23.20;;;;;;5047511;28;20278;-69
2022/10/28 05:47:59;;;;;;;3.90;0.80;;;27.50;23.30;;;;;;5051982;28;20215;-74
2022/10/28 05:50:27;;;;;;;1.33;0.50;;;27.60;23.10;;;;;;5045409;28;20215;-69
2022/10/28 05:52:56;;;;;;;6.47;0.67;;;27.60;23.30;;;;;;5047352;28;20187;-70
2022/10/28 05:55:27;;;;;;;0.97;0.60;;;27.90;22.20;;;;;;5051964;28;20183;-71
2022/10/28 05:57:55;;;;;;;1.47;0.50;;;28.00;22.10;;;;;;5051624;28;20717;-71
2022/10/28 06:00:25;;;;;;;2.10;0.50;;;27.70;22.60;;;;;;5045847;28;20173;-72
2022/10/28 06:02:52;;;;;;;0.53;0.40;;;27.80;22.70;;;;;;5048546;28;20583;-70
2022/10/28 06:05:19;;;;;;;2.03;0.70;;;26.70;23.70;;;;;;5050367;28;20211;-70
2022/10/28 06:07:47;;;;;;;0.60;0.50;;;26.80;24.50;;;;;;5047265;28;20188;-70
2022/10/28 06:10:14;;;;;;;2.10;0.60;;;27.60;22.80;;;;;;5052016;28;20184;-70
2022/10/28 06:12:42;;;;;;;1.63;0.60;;;27.70;22.90;;;;;;5051137;28;20168;-70
2022/10/28 06:15:09;;;;;;;1.97;0.60;;;27.40;22.00;;;;;;5035936;28;20176;-70
2022/10/28 06:17:37;;;;;;;6.70;0.90;;;26.80;22.90;;;;;;5069908;28;20228;-68
2022/10/28 06:20:05;;;;;;;2.10;0.80;;;26.90;22.80;;;;;;5056287;28;20180;-70
2022/10/28 06:22:33;;;;;;;1.37;0.70;;;26.90;22.20;;;;;;5039996;28;20175;-69
2022/10/28 06:25:00;;;;;;;2.20;0.57;;;26.80;22.40;;;;;;5050276;28;20211;-71
2022/10/28 06:27:27;;;;;;;2.83;0.80;;;27.30;22.00;;;;;;5051360;28;20210;-69
2022/10/28 06:29:55;;;;;;;0.67;0.40;;;26.90;22.70;;;;;;5054655;28;20263;-71
2022/10/28 06:32:22;;;;;;;1.20;0.37;;;27.00;22.70;;;;;;5055207;28;20229;-67
2022/10/28 06:34:49;;;;;;;1.13;0.53;;;25.60;24.30;;;;;;5050647;28;20283;-68
2022/10/28 06:37:17;;;;;;;3.57;0.60;;;26.00;24.10;;;;;;5051621;28;20187;-67
2022/10/28 06:39:44;;;;;;;4.23;0.90;;;25.30;25.10;;;;;;5045647;28;20175;-69
2022/10/28 06:42:11;;;;;;;0.40;0.40;;;25.10;25.20;;;;;;5025839;28;20194;-71
2022/10/28 06:44:39;;;;;;;3.77;0.67;;;25.70;24.50;;;;;;5047613;28;20199;-70
2022/10/28 06:47:06;;;;;;;4.13;0.83;;;26.30;24.10;;;;;;5052990;28;20190;-71
2022/10/28 06:49:33;;;;;;;0.73;0.40;;;26.30;24.40;;;;;;5053903;28;20220;-72
2022/10/28 06:52:01;;;;;;;0.93;0.40;;;26.10;24.60;;;;;;5034049;28;20180;-71
2022/10/28 06:54:28;;;;;;;1.70;0.50;;;25.00;25.80;;;;;;5053195;28;20188;-72
2022/10/28 06:56:56;;;;;;;0.93;0.50;;;25.70;24.90;;;;;;5052481;28;20320;-70
2022/10/28 06:59:23;;;;;;;1.63;0.70;;;26.30;24.20;;;;;;5040112;28;20188;-69
2022/10/28 07:01:50;;;;;;;2.67;0.70;;;26.30;24.20;;;;;;5053891;28;20172;-71
2022/10/28 07:04:18;;;;;;;1.37;0.50;;;26.60;24.20;;;;;;5054878;28;20266;-70
2022/10/28 07:06:45;;;;;;;1.70;0.50;;;26.50;23.90;;;;;;5055282;28;20259;-67
2022/10/28 07:09:16;;;;;;;0.67;0.43;;;26.10;24.50;;;;;;5054911;28;20605;-68
2022/10/28 07:11:43;;;;;;;4.33;0.60;;;25.80;24.60;;;;;;5054616;28;20192;-69
2022/10/28 07:14:11;;;;;;;0.97;0.60;;;25.20;25.20;;;;;;5037221;28;20184;-67
2022/10/28 07:16:38;;;;;;;2.03;0.77;;;25.60;24.90;;;;;;5050534;28;20584;-69
2022/10/28 07:19:05;;;;;;;1.30;0.57;;;24.90;25.90;;;;;;5054247;28;20200;-69
2022/10/28 07:21:33;;;;;;;1.73;0.70;;;25.00;26.30;;;;;;5038909;28;20182;-69
2022/10/28 07:24:01;;;;;;;2.13;0.70;;;25.00;26.30;;;;;;5054490;28;20183;-68
2022/10/28 07:26:28;;;;;;;0.90;0.60;;;25.00;26.20;;;;;;5054387;28;20283;-69
2022/10/28 07:28:56;;;;;;;3.90;0.50;;;24.10;27.00;;;;;;5054141;28;20674;-67
2022/10/28 07:31:23;;;;;;;3.13;0.60;;;23.70;27.50;;;;;;5054063;28;20211;-69
2022/10/28 07:33:54;;;;;;;1.60;0.70;;;23.30;28.30;;;;;;5045165;28;20608;-71
2022/10/28 07:36:22;;;;;;;1.70;0.63;;;23.20;28.50;;;;;;5037314;28;20226;-69
2022/10/28 07:38:53;;;;;;;3.07;0.80;;;23.30;28.60;;;;;;5034881;28;20240;-67
2022/10/28 07:41:22;;;;;;;1.40;0.67;;;23.30;28.50;;;;;;5044791;28;20229;-71
2022/10/28 07:43:50;;;;;;;1.97;0.77;;;23.20;28.90;;;;;;5054274;28;20228;-68
2022/10/28 07:46:18;;;;;;;4.73;0.70;;;23.00;28.90;;;;;;5054732;28;20168;-67
2022/10/28 07:48:45;;;;;;;1.97;0.63;;;22.80;29.30;;;;;;5030753;28;20570;-68
2022/10/28 07:51:14;;;;;;;2.00;0.90;;;22.70;29.10;;;;;;5053912;28;20186;-68
2022/10/28 07:53:42;;;;;;;0.83;0.60;;;22.50;29.90;;;;;;5054101;28;20310;-68
2022/10/28 07:56:14;;;;;;;0.70;0.60;;;22.50;30.10;;;;;;5054472;28;20589;-68
2022/10/28 07:58:43;;;;;;;1.73;0.70;;;22.30;30.50;;;;;;5051536;28;20180;-68
2022/10/28 08:01:15;;;;;;;1.03;0.70;;;22.30;30.80;;;;;;5039880;28;20182;-68
2022/10/28 08:03:42;;;;;;;6.03;0.83;;;22.30;31.00;;;;;;5053970;28;20164;-67
2022/10/28 08:06:15;;;;;;;1.07;0.63;;;22.20;31.30;;;;;;5054278;28;20184;-68
2022/10/28 08:08:42;;;;;;;0.83;0.60;;;22.10;31.20;;;;;;5039805;28;20270;-68
2022/10/28 08:11:23;;;;;;;2.47;0.67;;;22.00;31.30;;;;;;5053912;28;20514;-68
2022/10/28 08:13:51;;;;;;;2.60;0.60;;;21.90;31.10;;;;;;5036105;28;20180;-69
2022/10/28 08:16:19;;;;;;;3.50;0.77;;;21.80;31.30;;;;;;5053950;28;20203;-68
2022/10/28 08:18:47;;;;;;;1.60;0.87;;;21.80;30.70;;;;;;5037509;28;20203;-68
2022/10/28 08:21:14;;;;;;;0.60;0.50;;;21.80;30.90;;;;;;5053599;28;20267;-68
2022/10/28 08:23:45;;;;;;;1.10;0.70;;;21.70;30.50;;;;;;5053677;28;20184;-68
2022/10/28 08:26:14;;;;;;;1.23;0.70;;;21.60;30.60;;;;;;5049250;28;20180;-69
2022/10/28 08:28:42;;;;;;;1.63;0.80;;;21.50;30.80;;;;;;5053537;28;20282;-68
2022/10/28 08:31:11;;;;;;;1.13;0.77;;;21.40;31.20;;;;;;5053364;28;20661;-69
2022/10/28 08:33:45;;;;;;;1.03;0.70;;;21.30;31.50;;;;;;5053586;28;20267;-69
2022/10/28 08:36:15;;;;;;;1.20;0.63;;;21.30;31.80;;;;;;5052153;28;20175;-69
2022/10/28 08:38:46;;;;;;;1.07;0.60;;;21.20;31.90;;;;;;5033062;28;20196;-69
2022/10/28 08:41:28;;;;;;;0.97;0.60;;;21.10;32.20;;;;;;5046469;28;20218;-74
2022/10/28 08:44:01;;;;;;;1.37;0.80;;;21.20;32.00;;;;;;5053345;28;20227;-72
2022/10/28 08:46:49;;;;;;;4.60;0.70;;;21.20;32.20;;;;;;5053360;28;20176;-72
2022/10/28 08:49:20;;;;;;;2.70;0.70;;;21.00;32.10;;;;;;5052855;28;20212;-70
2022/10/28 08:51:56;;;;;;;3.03;0.70;;;21.00;32.20;;;;;;5053242;28;20267;-71
2022/10/28 08:54:39;;;;;;;4.10;0.70;;;21.00;32.50;;;;;;5053152;28;20168;-72
2022/10/28 08:57:15;;;;;;;1.40;0.70;;;21.00;32.60;;;;;;5035775;28;20195;-71
2022/10/28 08:59:44;;;;;;;1.50;0.60;;;20.90;32.30;;;;;;5051746;28;20186;-70
2022/10/28 09:02:14;;;;;;;1.63;0.70;;;20.90;32.80;;;;;;5053735;28;20180;-67
2022/10/28 09:04:47;;;;;;;1.20;0.57;;;20.90;33.10;;;;;;5051787;28;20184;-69
2022/10/28 09:07:18;;;;;;;1.73;1.00;;;20.80;33.10;;;;;;5047550;28;20188;-71
2022/10/28 09:09:49;;;;;;;6.60;0.80;;;20.80;33.10;;;;;;5052923;28;20219;-72
2022/10/28 09:12:35;;;;;;;0.60;0.60;;;20.80;33.30;;;;;;5052775;28;20179;-71
2022/10/28 09:15:08;;;;;;;3.17;0.70;;;20.70;33.50;;;;;;5050716;28;20215;-70
2022/10/28 09:18:00;;;;;;;2.30;0.87;;;20.70;33.90;;;;;;5043265;28;20168;-75
2022/10/28 09:20:46;;;;;;;1.90;1.00;;;20.70;33.80;;;;;;5052309;28;20563;-72
2022/10/28 09:23:28;;;;;;;2.27;0.83;;;20.60;34.10;;;;;;5052691;28;20182;-73
2022/10/28 09:26:26;;;;;;;2.33;0.60;;;20.60;34.40;;;;;;5052118;28;20259;-72
2022/10/28 09:29:31;;;;;;;2.00;0.70;;;20.50;34.40;;;;;;5052602;28;20680;-71
2022/10/28 09:32:29;;;;;;;2.60;0.60;;;20.50;34.20;;;;;;5038949;28;20605;-69
2022/10/28 09:35:05;;;;;;;2.20;0.63;;;20.50;34.10;;;;;;5049762;28;20199;-71
2022/10/28 09:37:58;;;;;;;2.17;0.83;;;20.50;34.20;;;;;;5049662;28;20171;-68
2022/10/28 09:40:30;;;;;;;2.37;0.57;;;20.40;34.80;;;;;;5039811;28;20180;-69
2022/10/28 09:43:07;;;;;;;1.10;0.60;;;20.30;35.00;;;;;;5052240;28;20226;-70
2022/10/28 09:45:42;;;;;;;2.90;0.97;;;20.30;35.00;;;;;;5039539;28;20594;-70
2022/10/28 09:48:26;;;;;;;2.50;0.90;;;20.30;35.40;;;;;;5052287;28;20282;-68
2022/10/28 09:50:56;;;;;;;0.93;0.63;;;20.30;35.60;;;;;;5050784;28;20181;-69
2022/10/28 09:53:48;;;;;;;2.50;0.70;;;20.30;35.60;;;;;;5057333;28;20187;-70
2022/10/28 09:56:15;;;;;;;0.53;0.53;;;20.20;35.80;;;;;;5055017;28;20199;-68
2022/10/28 09:58:46;;;;;;;0.60;0.60;;;20.10;35.50;;;;;;5058269;28;20210;-70
2022/10/28 10:01:17;;;;;;;1.83;0.80;;;20.10;35.90;;;;;;5058890;28;20186;-70
2022/10/28 10:03:48;;;;;;;1.53;0.70;;;20.00;36.40;;;;;;5057779;28;20175;-70
2022/10/28 10:06:38;;;;;;;1.17;0.70;;;20.00;36.50;;;;;;5054445;28;20694;-69
2022/10/28 10:09:08;;;;;;;1.00;0.70;;;19.90;36.40;;;;;;5057855;28;20566;-68
2022/10/28 10:11:45;;;;;;;1.93;0.70;;;20.00;36.50;;;;;;5058779;28;20184;-69
2022/10/28 10:14:18;;;;;;;3.17;0.90;;;19.90;36.70;;;;;;5058249;28;20193;-69
2022/10/28 10:17:05;;;;;;;3.83;0.77;;;19.90;37.30;;;;;;5058923;28;20222;-69
2022/10/28 10:20:00;;;;;;;0.97;0.70;;;19.90;37.80;;;;;;5058111;28;20182;-69
2022/10/28 10:22:44;;;;;;;1.17;0.90;;;19.80;37.60;;;;;;5058020;28;20179;-66
2022/10/28 10:25:18;;;;;;;1.30;0.70;;;19.80;38.20;;;;;;5050423;28;20178;-66
2022/10/28 10:27:59;;;;;;;0.93;0.60;;;19.70;38.20;;;;;;5046228;28;20657;-69
2022/10/28 10:30:45;;;;;;;1.73;0.63;;;19.60;38.70;;;;;;5058752;28;20199;-71
2022/10/28 10:33:23;;;;;;;1.60;0.60;;;19.70;38.90;;;;;;5049739;28;20184;-70
2022/10/28 10:36:04;;;;;;;1.37;0.87;;;19.60;38.40;;;;;;5058074;28;20510;-68
2022/10/28 10:38:32;;;;;;;1.83;0.70;;;19.60;38.40;;;;;;5058582;28;20211;-69
2022/10/28 10:40:59;;;;;;;0.93;0.73;;;19.50;38.90;;;;;;5054418;28;20176;-67
2022/10/28 10:43:38;;;;;;;3.37;0.70;;;19.50;38.80;;;;;;5057619;28;20231;-68
2022/10/28 10:46:14;;;;;;;1.73;0.90;;;19.50;39.20;;;;;;5058561;28;20543;-72
2022/10/28 10:48:42;;;;;;;3.30;0.90;;;19.40;39.20;;;;;;5072653;28;20703;-68
2022/10/28 10:51:12;;;;;;;2.17;0.90;;;19.40;39.30;;;;;;5066490;28;20184;-71
2022/10/28 10:53:40;;;;;;;6.87;1.13;;;19.40;39.20;;;;;;5058676;28;20237;-71
2022/10/28 10:56:11;;;;;;;1.80;0.93;;;19.30;38.80;;;;;;5058599;28;20179;-69
2022/10/28 10:58:47;;;;;;;1.10;0.70;;;19.30;39.30;;;;;;5057649;28;20188;-69
2022/10/28 11:01:23;;;;;;;1.43;0.70;;;19.40;38.60;;;;;;5058140;28;20183;-68
2022/10/28 11:04:04;;;;;;;3.80;1.00;;;19.40;38.10;;;;;;5054816;28;20176;-70
2022/10/28 11:06:36;;;;;;;1.73;0.80;;;19.40;38.00;;;;;;5053803;28;20175;-70
2022/10/28 11:09:06;;;;;;;3.17;0.90;;;19.50;37.80;;;;;;5054676;28;20215;-71
2022/10/28 11:11:35;;;;;;;2.73;0.60;;;19.50;37.80;;;;;;5049259;28;20176;-70
2022/10/28 11:14:24;;;;;;;1.30;0.73;;;19.50;37.70;;;;;;5055402;28;20176;-70
2022/10/28 11:16:57;;;;;;;1.37;0.80;;;19.50;38.10;;;;;;5053860;28;20306;-69
2022/10/28 11:19:33;;;;;;;3.27;0.80;;;19.40;38.30;;;;;;5054382;28;20191;-68
2022/10/28 11:22:07;;;;;;;1.47;0.90;;;19.40;37.90;;;;;;5039065;28;20579;-68
2022/10/28 11:24:49;;;;;;;2.67;0.80;;;19.40;38.00;;;;;;5050011;28;20187;-69
2022/10/28 11:27:53;;;;;;;1.00;0.80;;;19.40;38.00;;;;;;5054048;28;20192;-69
2022/10/28 11:30:31;;;;;;;3.60;0.80;;;19.30;38.20;;;;;;5042706;28;20237;-68
2022/10/28 11:33:21;;;;;;;1.27;0.87;;;19.30;38.40;;;;;;5054808;28;20175;-68
2022/10/28 11:36:13;;;;;;;2.80;1.00;;;19.30;38.70;;;;;;5049296;28;20239;-69
2022/10/28 11:39:03;;;;;;;1.97;0.90;;;19.20;38.70;;;;;;5036873;28;20244;-69
2022/10/28 11:41:52;;;;;;;2.27;1.00;;;19.20;39.00;;;;;;5050036;28;20218;-69
2022/10/28 11:44:28;;;;;;;3.60;1.03;;;19.20;39.40;;;;;;5045595;28;20318;-68
2022/10/28 11:47:23;;;;;;;3.90;0.93;;;19.10;39.60;;;;;;5052658;28;20538;-71
2022/10/28 11:50:14;;;;;;;2.87;0.90;;;19.00;40.10;;;;;;5051046;28;20250;-71
2022/10/28 11:53:09;;;;;;;1.80;0.80;;;19.00;40.00;;;;;;5054488;28;20260;-71
2022/10/28 11:56:11;;;;;;;1.00;0.80;;;18.90;40.60;;;;;;5053037;28;20177;-68
2022/10/28 11:59:00;;;;;;;1.80;0.90;;;18.90;40.80;;;;;;5053856;28;20179;-73
2022/10/28 12:01:44;;;;;;;2.33;1.10;;;18.80;40.80;;;;;;5048708;28;20569;-71
2022/10/28 12:04:39;;;;;;;2.13;1.27;;;18.80;41.10;;;;;;5054106;28;20222;-71
2022/10/28 12:07:35;;;;;;;2.00;0.90;;;18.80;41.70;;;;;;5053585;28;20184;-70
2022/10/28 12:10:20;;;;;;;2.43;1.10;;;18.80;41.50;;;;;;5047817;28;20223;-70
2022/10/28 12:13:03;;;;;;;2.37;0.97;;;18.80;41.70;;;;;;5052558;28;20186;-71
2022/10/28 12:15:46;;;;;;;1.40;0.90;;;18.60;42.10;;;;;;5044896;28;20646;-69
2022/10/28 12:18:22;;;;;;;1.00;0.80;;;18.60;42.40;;;;;;5053915;28;20179;-70
2022/10/28 12:21:01;;;;;;;1.87;1.00;;;18.60;42.40;;;;;;5053519;28;20294;-71
2022/10/28 12:23:32;;;;;;;1.90;0.90;;;18.60;42.20;;;;;;5052756;28;20574;-69
2022/10/28 12:26:03;;;;;;;2.03;0.90;;;18.60;42.60;;;;;;5053887;28;20237;-69
2022/10/28 12:28:38;;;;;;;2.23;1.10;;;18.60;43.00;;;;;;5053273;28;20231;-70
2022/10/28 12:31:22;;;;;;;1.73;0.93;;;18.50;43.30;;;;;;5053454;28;20180;-71
2022/10/28 12:33:54;;;;;;;1.53;1.00;;;18.50;43.20;;;;;;5048226;28;20172;-72
2022/10/28 12:36:33;;;;;;;1.00;0.80;;;18.40;43.20;;;;;;5053082;28;20176;-69
2022/10/28 12:39:11;;;;;;;3.07;0.80;;;18.40;43.30;;;;;;5053787;28;20217;-72
2022/10/28 12:41:56;;;;;;;2.13;1.13;;;18.40;43.50;;;;;;5053045;28;20210;-71
2022/10/28 12:44:25;;;;;;;2.60;0.90;;;18.30;43.70;;;;;;5053568;28;20225;-72
2022/10/28 12:47:14;;;;;;;4.20;0.97;;;18.30;43.80;;;;;;5053005;28;20175;-72
2022/10/28 12:50:04;;;;;;;1.93;0.67;;;18.30;44.10;;;;;;5052986;28;20219;-72
2022/10/28 12:53:01;;;;;;;0.90;0.70;;;18.30;44.40;;;;;;5053541;28;20179;-71
2022/10/28 12:55:52;;;;;;;4.00;0.70;;;18.30;44.30;;;;;;4996826;28;20644;-70
2022/10/28 12:58:28;;;;;;;0.80;0.73;;;18.30;44.40;;;;;;5045985;28;20192;-72
2022/10/28 13:01:06;;;;;;;1.20;0.63;;;18.30;44.40;;;;;;5048916;28;20271;-71
2022/10/28 13:03:35;;;;;;;3.20;0.90;;;18.30;44.40;;;;;;5052311;28;20172;-70
2022/10/28 13:06:06;;;;;;;1.13;0.80;;;18.30;44.10;;;;;;5044886;28;20176;-71
2022/10/28 13:09:02;;;;;;;2.73;0.90;;;18.30;44.30;;;;;;5052753;28;20208;-70
2022/10/28 13:11:40;;;;;;;2.83;0.90;;;18.30;44.10;;;;;;5041801;28;20188;-71
2022/10/28 13:14:21;;;;;;;3.13;0.73;;;18.30;44.30;;;;;;5052370;28;20634;-69
2022/10/28 13:17:35;;;;;;;3.27;0.80;;;18.30;43.90;;;;;;5052436;28;20225;-70
2022/10/28 13:20:44;;;;;;;0.67;0.60;;;18.30;44.00;;;;;;5047717;28;20225;-69
2022/10/28 13:23:41;;;;;;;1.93;0.63;;;18.30;44.30;;;;;;5024374;28;20188;-69
2022/10/28 13:26:29;;;;;;;2.87;0.80;;;18.30;44.20;;;;;;5052407;28;20515;-71